createdAt,value
2019-03-31T00:01:53.096Z,22.93
2019-03-31T00:11:59.156Z,18.90
2019-03-31T00:22:05.608Z,24.82
2019-03-31T00:32:11.658Z,23.95
2019-03-31T00:42:17.447Z,20.45
2019-03-31T00:52:23.259Z,21.33
2019-03-31T01:02:31.643Z,17.95
2019-03-31T01:12:38.243Z,21.90
2019-03-31T01:22:44.358Z,22.15
2019-03-31T01:32:52.352Z,19.00
2019-03-31T01:42:58.534Z,18.40
2019-03-31T01:53:04.425Z,18.65
2019-03-31T02:03:10.729Z,17.05
2019-03-31T02:13:16.597Z,16.52
2019-03-31T02:23:22.496Z,19.80
2019-03-31T02:33:28.549Z,17.02
2019-03-31T02:43:34.469Z,17.07
2019-03-31T02:53:40.360Z,17.23
2019-03-31T03:04:07.965Z,19.48
2019-03-31T03:14:14.537Z,21.25
2019-03-31T03:24:20.662Z,18.40
2019-03-31T03:34:26.488Z,19.35
2019-03-31T03:44:32.382Z,18.30
2019-03-31T03:54:38.769Z,16.97
2019-03-31T04:04:44.557Z,17.35
2019-03-31T04:14:50.410Z,17.75
2019-03-31T04:24:56.280Z,17.40
2019-03-31T04:35:02.356Z,17.55
2019-03-31T04:45:08.812Z,20.32
2019-03-31T04:55:15.111Z,20.95
2019-03-31T05:05:21.159Z,19.60
2019-03-31T05:15:27.302Z,17.40
2019-03-31T05:25:52.113Z,22.35
2019-03-31T05:35:58.096Z,17.60
2019-03-31T05:46:04.015Z,24.20
2019-03-31T05:56:09.871Z,20.27
2019-03-31T06:06:15.734Z,21.65
2019-03-31T06:16:21.632Z,21.62
2019-03-31T06:26:27.462Z,20.25
2019-03-31T06:36:33.532Z,21.00
2019-03-31T06:46:39.434Z,26.75
2019-03-31T06:56:47.117Z,23.02
2019-03-31T07:06:52.780Z,20.88
2019-03-31T07:16:58.633Z,26.97
2019-03-31T07:27:04.528Z,31.57
2019-03-31T07:37:10.332Z,32.70
2019-03-31T07:47:16.411Z,35.45
2019-03-31T07:57:22.273Z,40.23
2019-03-31T08:07:28.695Z,52.75
2019-03-31T08:17:34.735Z,54.75
2019-03-31T08:27:40.663Z,49.00
2019-03-31T08:37:46.710Z,48.73
2019-03-31T08:47:52.625Z,50.17
2019-03-31T08:57:58.450Z,48.60
2019-03-31T09:08:04.535Z,51.95
2019-03-31T09:18:10.356Z,53.63
2019-03-31T09:28:16.804Z,57.80
2019-03-31T09:38:22.704Z,58.52
2019-03-31T09:48:28.530Z,61.28
2019-03-31T09:58:34.331Z,52.70
2019-03-31T10:08:40.415Z,61.00
2019-03-31T10:18:46.431Z,64.70
2019-03-31T10:28:52.509Z,61.60
2019-03-31T10:38:58.556Z,49.23
2019-03-31T10:49:04.468Z,49.73
2019-03-31T10:59:10.289Z,44.80
2019-03-31T11:09:16.091Z,50.95
2019-03-31T11:19:21.912Z,51.88
2019-03-31T11:29:28.016Z,52.58
2019-03-31T11:39:34.158Z,48.42
2019-03-31T11:49:40.454Z,51.20
2019-03-31T11:59:49.540Z,51.77
2019-03-31T12:09:54.314Z,50.50
2019-03-31T12:20:01.193Z,49.35
2019-03-31T12:30:07.795Z,48.35
2019-03-31T12:40:28.744Z,48.35
2019-03-31T12:50:34.785Z,49.80
2019-03-31T13:00:40.875Z,40.30
2019-03-31T13:10:46.952Z,35.00
2019-03-31T13:20:52.804Z,35.95
2019-03-31T13:30:58.618Z,33.30
2019-03-31T13:41:04.826Z,32.10
2019-03-31T13:51:10.640Z,35.35
2019-03-31T14:01:16.700Z,31.52
2019-03-31T14:11:22.487Z,28.57
2019-03-31T14:21:28.524Z,22.35
2019-03-31T14:31:34.394Z,17.90
2019-03-31T14:41:40.291Z,24.27
2019-03-31T14:51:46.344Z,19.30
2019-03-31T15:01:53.056Z,15.20
2019-03-31T15:11:58.878Z,14.38
2019-03-31T15:22:04.781Z,15.78
2019-03-31T15:32:10.879Z,16.23
2019-03-31T15:42:16.689Z,14.55
2019-03-31T15:52:23.100Z,10.82
2019-03-31T16:02:29.286Z,12.15
2019-03-31T16:12:34.759Z,8.68
2019-03-31T16:22:40.015Z,7.80
2019-03-31T16:32:45.516Z,6.42
2019-03-31T16:42:50.773Z,8.00
2019-03-31T16:52:56.300Z,5.20
2019-03-31T17:03:01.566Z,6.85
2019-03-31T17:13:06.904Z,6.67
2019-03-31T17:23:12.416Z,6.92
2019-03-31T17:33:17.664Z,5.58
2019-03-31T17:43:22.916Z,6.17
2019-03-31T17:53:28.828Z,10.08
2019-03-31T18:03:34.360Z,7.67
2019-03-31T18:13:40.132Z,11.40
2019-03-31T18:23:45.644Z,14.98
2019-03-31T18:33:51.297Z,14.68
2019-03-31T18:43:56.897Z,11.50
2019-03-31T18:54:25.113Z,13.43
2019-03-31T19:04:52.329Z,16.20
2019-03-31T19:15:11.120Z,19.60
2019-03-31T19:25:33.548Z,18.07
2019-03-31T19:35:50.691Z,23.98
2019-03-31T19:46:15.091Z,20.15
2019-03-31T19:56:42.207Z,20.02
2019-03-31T20:07:05.178Z,21.62
2019-03-31T20:17:28.946Z,18.23
2019-03-31T20:28:03.291Z,17.73
2019-03-31T20:38:31.016Z,18.57
2019-03-31T20:48:36.574Z,12.93
2019-03-31T20:58:41.835Z,14.18
2019-03-31T21:08:47.439Z,11.97
2019-03-31T21:18:52.932Z,11.48
2019-03-31T21:28:58.296Z,14.25
2019-03-31T21:39:05.459Z,14.65
2019-03-31T21:49:30.921Z,17.50
2019-03-31T21:59:36.447Z,11.43
2019-03-31T22:09:41.786Z,12.33
2019-03-31T22:19:47.343Z,11.38
2019-03-31T22:29:52.744Z,10.43
2019-03-31T22:39:58.119Z,10.58
2019-03-31T22:50:03.740Z,10.98
2019-03-31T23:00:14.071Z,7.95
2019-03-31T23:10:19.555Z,8.60
2019-03-31T23:20:24.818Z,10.10
2019-03-31T23:30:30.084Z,13.88
2019-03-31T23:40:35.355Z,9.70
2019-03-31T23:50:40.607Z,6.25
